Gandhi — A8OK8 — position and weather

sailwx.info

Track history (hours):
 
Tides and Currents Weather Stations Pressure Air Temp Water Temp Dewpoint Dewpoint Depression Visibility Wind Speed Wind Dir Waves Ship Positions

Gandhi

Last reported at 2014-Dec-08 11:31 UTC. Time now 2014-Dec-18 23:06 UTC.
Position N 50°35' E 000°23'.
Warning: this ship's position is 10 days out of date.

Length 180 m; draft 10.8 m.

Type: Ship. MMSI: 636013645.

Date/timePositionNaut miles runAvg speedWind from/ knotsBaromVisibWave heightAir tempDewpointWater temp
2014-Dec-08 11:31N 50°35' E 000°23'1010.3
2014-Dec-08 10:33N 50°39' E 000°38'1010.4
2014-Dec-08 09:33N 50°45' E 000°50'2512.5
2014-Dec-08 07:32N 51°01' E 001°22'1313.9
2014-Dec-08 06:33N 51°09' E 001°38'1212.4
2014-Dec-08 05:34N 51°19' E 001°51'1110.9
2014-Dec-08 04:33N 51°28' E 002°01'1010.1
2014-Dec-08 03:33N 51°35' E 002°12'66 9.4
2014-Dec-07 20:31N 52°02' E 003°50'9 9.4
2014-Dec-07 19:33N 51°59' E 004°04'6 6.1
2014-Dec-07 18:33N 51°56' E 004°12'0 0.2
2014-Dec-07 17:30N 51°56' E 004°12'0 0.0
2014-Dec-07 15:34N 51°56' E 004°12'0 0.0
2014-Dec-07 14:24N 51°56' E 004°12'0 0.0
2014-Dec-07 12:15N 51°56' E 004°12'0 0.0
2014-Dec-07 11:33N 51°56' E 004°12'0 0.0
2014-Dec-07 10:21N 51°56' E 004°12'0 0.0
2014-Dec-07 09:06N 51°56' E 004°12'0 0.0
2014-Dec-07 08:09N 51°56' E 004°12'0 0.0
2014-Dec-07 07:15N 51°56' E 004°12'0 0.0
2014-Dec-07 06:27N 51°56' E 004°12'0 0.0
2014-Dec-07 05:33N 51°56' E 004°12'0 0.0
2014-Dec-07 04:27N 51°56' E 004°12'0 0.0
2014-Dec-07 03:15N 51°56' E 004°12'0 0.0
2014-Dec-07 02:30N 51°56' E 004°12'0 0.0
2014-Dec-07 01:33N 51°56' E 004°12'0 0.0
2014-Dec-07 00:21N 51°56' E 004°12'0 0.0
2014-Dec-06 23:10N 51°56' E 004°12'0 0.0
2014-Dec-06 22:33N 51°56' E 004°12'2 2.2
2014-Dec-06 21:33N 51°57' E 004°09'3 3.5
2014-Dec-06 20:33N 51°59' E 004°05'1110.8
2014-Dec-06 19:33N 51°54' E 004°20'2 1.7
2014-Dec-06 18:33N 51°53' E 004°22'0 0.0
2014-Dec-06 17:33N 51°53' E 004°22'0 0.0
2014-Dec-06 16:33N 51°53' E 004°22'0 0.0
2014-Dec-06 15:33N 51°53' E 004°22'0 0.0
2014-Dec-06 14:30N 51°53' E 004°22'0 0.0
2014-Dec-06 13:33N 51°53' E 004°22'0 0.0
2014-Dec-06 12:33N 51°53' E 004°22'0 0.0
2014-Dec-06 11:33N 51°53' E 004°22'0 0.0
2014-Dec-06 10:33N 51°53' E 004°22'0 0.0
2014-Dec-06 09:33N 51°53' E 004°22'0 0.0
2014-Dec-06 08:33N 51°53' E 004°22'0 0.0
2014-Dec-06 07:33N 51°53' E 004°22'0 0.0
2014-Dec-06 06:33N 51°53' E 004°22'0 0.0
2014-Dec-06 05:33N 51°53' E 004°22'0 0.0
2014-Dec-06 04:33N 51°53' E 004°22'0 0.0
2014-Dec-06 03:30N 51°53' E 004°22'0 0.0
2014-Dec-06 02:33N 51°53' E 004°22'0 0.0
2014-Dec-06 00:33N 51°53' E 004°22'0 0.0
2014-Dec-05 23:33N 51°53' E 004°22'0 0.0
2014-Dec-05 22:33N 51°53' E 004°22'0 0.0
2014-Dec-05 21:33N 51°53' E 004°22'0 0.0
2014-Dec-05 20:33N 51°53' E 004°22'0 0.0
2014-Dec-05 19:33N 51°53' E 004°22'0 0.0
2014-Dec-05 18:33N 51°53' E 004°22'0 0.0
2014-Dec-05 17:33N 51°53' E 004°22'0 0.0
2014-Dec-05 16:30N 51°53' E 004°22'0 0.0
2014-Dec-05 15:33N 51°53' E 004°22'0 0.0
2014-Dec-05 14:33N 51°53' E 004°22'0 0.0
2014-Dec-05 13:33N 51°53' E 004°22'0 0.0
2014-Dec-05 12:33N 51°53' E 004°22'0 0.0
2014-Dec-05 11:33N 51°53' E 004°22'0 0.0
2014-Dec-05 10:33N 51°53' E 004°22'0 0.0
2014-Dec-05 09:33N 51°53' E 004°22'0 0.0
2014-Dec-05 08:30N 51°53' E 004°22'0 0.0
2014-Dec-05 07:33N 51°53' E 004°22'0 0.0
2014-Dec-05 06:33N 51°53' E 004°22'0 0.0
2014-Dec-05 05:30N 51°53' E 004°22'0 0.0
2014-Dec-05 04:33N 51°53' E 004°22'0 0.0
2014-Dec-05 03:33N 51°53' E 004°22'0 0.0
2014-Dec-05 02:33N 51°53' E 004°22'0 0.0
2014-Dec-05 01:33N 51°53' E 004°22'0 0.0
2014-Dec-05 00:33N 51°53' E 004°22'0 0.0
2014-Dec-04 23:33N 51°53' E 004°22'0 0.0
2014-Dec-04 22:30N 51°53' E 004°22'0 0.0
2014-Dec-04 21:33N 51°53' E 004°22'0 0.0
2014-Dec-04 20:33N 51°53' E 004°22'0 0.0
2014-Dec-04 19:33N 51°53' E 004°22'0 0.0
2014-Dec-04 18:33N 51°53' E 004°22'0 0.0
2014-Dec-04 17:33N 51°53' E 004°22'0 0.0
2014-Dec-04 16:33N 51°53' E 004°22'0 0.0
2014-Dec-04 15:33N 51°53' E 004°22'0 0.0
2014-Dec-04 14:33N 51°53' E 004°22'0 0.0
2014-Dec-04 13:33N 51°53' E 004°22'0 0.0
2014-Dec-04 12:33N 51°53' E 004°22'0 0.0
2014-Dec-04 11:33N 51°53' E 004°22'0 0.0
2014-Dec-04 10:33N 51°53' E 004°22'0 0.0
2014-Dec-04 09:33N 51°53' E 004°22'0 0.0
2014-Dec-04 08:33N 51°53' E 004°22'0 0.0
2014-Dec-04 07:33N 51°53' E 004°22'0 0.0
2014-Dec-04 06:33N 51°53' E 004°22'0 0.0
2014-Dec-04 05:33N 51°53' E 004°22'0 0.0
2014-Dec-04 04:33N 51°53' E 004°22'0 0.0
2014-Dec-04 03:33N 51°53' E 004°22'0 0.0
2014-Dec-04 02:33N 51°53' E 004°22'0 0.0
2014-Dec-04 01:33N 51°53' E 004°22'0 0.0
2014-Dec-04 00:33N 51°53' E 004°22'0 0.0
2014-Dec-03 23:33N 51°53' E 004°22'0 0.0
2014-Dec-03 22:33N 51°53' E 004°22'0 0.0
2014-Dec-03 21:33N 51°53' E 004°22'0 0.0
2014-Dec-03 20:30N 51°53' E 004°22'0 0.0
2014-Dec-03 19:33N 51°53' E 004°22'0 0.0
2014-Dec-03 18:33N 51°53' E 004°22'0 0.0
2014-Dec-03 17:33N 51°53' E 004°22'0 0.0
2014-Dec-03 16:33N 51°53' E 004°22'0 0.0
2014-Dec-03 15:30N 51°53' E 004°22'0 0.0
2014-Dec-03 14:33N 51°53' E 004°22'0 0.0
2014-Dec-03 13:33N 51°53' E 004°22'0 0.0
2014-Dec-03 12:24N 51°53' E 004°22'0 0.0
2014-Dec-03 11:30N 51°53' E 004°22'0 0.0
2014-Dec-03 10:33N 51°53' E 004°22'0 0.0
2014-Dec-03 09:33N 51°53' E 004°22'0 0.0
2014-Dec-03 08:33N 51°53' E 004°22'0 0.0
2014-Dec-03 07:33N 51°53' E 004°22'0 0.0
2014-Dec-03 06:33N 51°53' E 004°22'0 0.0
2014-Dec-03 05:33N 51°53' E 004°22'0 0.0
2014-Dec-03 04:30N 51°53' E 004°22'0 0.0
2014-Dec-03 03:30N 51°53' E 004°22'0 0.0
2014-Dec-03 02:33N 51°53' E 004°22'2 2.1
2014-Dec-03 01:33N 51°54' E 004°19'9 9.0
2014-Dec-03 00:33N 51°59' E 004°07'1110.5
2014-Dec-02 23:33N 52°01' E 003°50'9 0.6
2014-Dec-02 08:12N 51°56' E 003°37'0 0.0
2014-Dec-02 05:06N 51°56' E 003°37'0 0.0
2014-Dec-02 04:27N 51°56' E 003°37'0 0.0
2014-Dec-02 02:27N 51°56' E 003°37'2 2.3
2014-Dec-02 01:29N 51°57' E 003°34'1010.6
2014-Dec-02 00:34N 51°52' E 003°21'1312.5
2014-Dec-01 23:33N 51°40' E 003°20'1414.4
2014-Dec-01 22:34N 51°27' E 003°31'1010.4
2014-Dec-01 21:34N 51°22' E 003°45'1010.0
2014-Dec-01 20:33N 51°26' E 003°60'9 8.5
2014-Dec-01 19:33N 51°23' E 004°13'4 3.9
2014-Dec-01 18:33N 51°21' E 004°17'0 0.0
2014-Dec-01 17:33N 51°21' E 004°17'0 0.4
2014-Dec-01 16:33N 51°21' E 004°18'1 0.0
2014-Nov-30 10:34N 51°21' E 004°18'1 0.7
2014-Nov-30 09:34N 51°21' E 004°17'4 3.7
2014-Nov-30 08:33N 51°23' E 004°13'9 9.4
2014-Nov-30 07:33N 51°25' E 003°58'10 9.8
2014-Nov-30 06:33N 51°24' E 003°43'7 7.3
2014-Nov-30 05:33N 51°25' E 003°31'1312.5
2014-Nov-30 04:33N 51°24' E 003°11'1312.4
2014-Nov-30 03:28N 51°21' E 002°50'9 9.5
2014-Nov-30 02:32N 51°23' E 002°36'1 1.2
2014-Nov-30 01:32N 51°24' E 002°36'0 0.0
2014-Nov-30 00:32N 51°24' E 002°36'0 0.0
2014-Nov-29 23:32N 51°24' E 002°36'0 0.0
2014-Nov-29 22:29N 51°24' E 002°36'0 0.1
2014-Nov-29 21:32N 51°25' E 002°36'0 0.1
2014-Nov-29 20:32N 51°25' E 002°36'0 0.0
2014-Nov-29 19:32N 51°25' E 002°36'0 0.0
2014-Nov-29 18:17N 51°25' E 002°36'0 0.0
2014-Nov-29 17:26N 51°25' E 002°36'0 0.0
2014-Nov-29 16:32N 51°25' E 002°36'0 0.1
2014-Nov-29 12:32N 51°24' E 002°36'0 0.0
2014-Nov-29 10:05N 51°24' E 002°36'0 0.0
2014-Nov-29 09:20N 51°24' E 002°36'0 0.1
2014-Nov-29 08:17N 51°25' E 002°36'0 0.1
2014-Nov-29 07:32N 51°25' E 002°36'0 0.0
2014-Nov-29 06:29N 51°25' E 002°36'0 0.0
2014-Nov-29 05:29N 51°25' E 002°36'0 0.1
2014-Nov-29 04:32N 51°25' E 002°36'0 0.1
2014-Nov-29 03:20N 51°24' E 002°36'0 0.1
2014-Nov-29 02:17N 51°24' E 002°36'0 0.0
2014-Nov-29 01:23N 51°24' E 002°36'0 0.0
2014-Nov-29 00:17N 51°24' E 002°36'0 0.0
2014-Nov-28 23:32N 51°24' E 002°36'0 0.0
2014-Nov-28 22:29N 51°24' E 002°36'0 0.0
2014-Nov-28 21:17N 51°24' E 002°36'0 0.0
2014-Nov-28 20:29N 51°24' E 002°36'0 0.2
2014-Nov-28 19:32N 51°25' E 002°36'0 0.1
2014-Nov-28 18:17N 51°25' E 002°36'0 0.0
2014-Nov-28 17:14N 51°25' E 002°36'0 0.0
2014-Nov-28 16:29N 51°25' E 002°36'0 0.2
2014-Nov-28 15:26N 51°25' E 002°36'0 0.1
2014-Nov-28 14:20N 51°24' E 002°36'0 0.1
2014-Nov-28 13:32N 51°24' E 002°36'0 0.0
2014-Nov-28 12:26N 51°24' E 002°36'0 0.0
2014-Nov-28 11:32N 51°24' E 002°36'  
Track history (hours):
 
Tides and Currents Weather Stations Pressure Air Temp Water Temp Dewpoint Dewpoint Depression Visibility Wind Speed Wind Dir Waves Ship Positions

Gandhi

Last reported at 2014-Dec-08 11:31 UTC. Time now 2014-Dec-18 23:06 UTC.
Position N 50°35' E 000°23'.
Warning: this ship's position is 10 days out of date.

Length 180 m; draft 10.8 m.

Type: Ship. MMSI: 636013645.

Date/timePositionNaut miles runAvg speedWind from/ knotsBaromVisibWave heightAir tempDewpointWater temp
2014-Dec-08 11:31N 50°35' E 000°23'1010.3
2014-Dec-08 10:33N 50°39' E 000°38'1010.4
2014-Dec-08 09:33N 50°45' E 000°50'2512.5
2014-Dec-08 07:32N 51°01' E 001°22'1313.9
2014-Dec-08 06:33N 51°09' E 001°38'1212.4
2014-Dec-08 05:34N 51°19' E 001°51'1110.9
2014-Dec-08 04:33N 51°28' E 002°01'1010.1
2014-Dec-08 03:33N 51°35' E 002°12'66 9.4
2014-Dec-07 20:31N 52°02' E 003°50'9 9.4
2014-Dec-07 19:33N 51°59' E 004°04'6 6.1
2014-Dec-07 18:33N 51°56' E 004°12'0 0.2
2014-Dec-07 17:30N 51°56' E 004°12'0 0.0
2014-Dec-07 15:34N 51°56' E 004°12'0 0.0
2014-Dec-07 14:24N 51°56' E 004°12'0 0.0
2014-Dec-07 12:15N 51°56' E 004°12'0 0.0
2014-Dec-07 11:33N 51°56' E 004°12'0 0.0
2014-Dec-07 10:21N 51°56' E 004°12'0 0.0
2014-Dec-07 09:06N 51°56' E 004°12'0 0.0
2014-Dec-07 08:09N 51°56' E 004°12'0 0.0
2014-Dec-07 07:15N 51°56' E 004°12'0 0.0
2014-Dec-07 06:27N 51°56' E 004°12'0 0.0
2014-Dec-07 05:33N 51°56' E 004°12'0 0.0
2014-Dec-07 04:27N 51°56' E 004°12'0 0.0
2014-Dec-07 03:15N 51°56' E 004°12'0 0.0
2014-Dec-07 02:30N 51°56' E 004°12'0 0.0
2014-Dec-07 01:33N 51°56' E 004°12'0 0.0
2014-Dec-07 00:21N 51°56' E 004°12'0 0.0
2014-Dec-06 23:10N 51°56' E 004°12'0 0.0
2014-Dec-06 22:33N 51°56' E 004°12'2 2.2
2014-Dec-06 21:33N 51°57' E 004°09'3 3.5
2014-Dec-06 20:33N 51°59' E 004°05'1110.8
2014-Dec-06 19:33N 51°54' E 004°20'2 1.7
2014-Dec-06 18:33N 51°53' E 004°22'0 0.0
2014-Dec-06 17:33N 51°53' E 004°22'0 0.0
2014-Dec-06 16:33N 51°53' E 004°22'0 0.0
2014-Dec-06 15:33N 51°53' E 004°22'0 0.0
2014-Dec-06 14:30N 51°53' E 004°22'0 0.0
2014-Dec-06 13:33N 51°53' E 004°22'0 0.0
2014-Dec-06 12:33N 51°53' E 004°22'0 0.0
2014-Dec-06 11:33N 51°53' E 004°22'0 0.0
2014-Dec-06 10:33N 51°53' E 004°22'0 0.0
2014-Dec-06 09:33N 51°53' E 004°22'0 0.0
2014-Dec-06 08:33N 51°53' E 004°22'0 0.0
2014-Dec-06 07:33N 51°53' E 004°22'0 0.0
2014-Dec-06 06:33N 51°53' E 004°22'0 0.0
2014-Dec-06 05:33N 51°53' E 004°22'0 0.0
2014-Dec-06 04:33N 51°53' E 004°22'0 0.0
2014-Dec-06 03:30N 51°53' E 004°22'0 0.0
2014-Dec-06 02:33N 51°53' E 004°22'0 0.0
2014-Dec-06 00:33N 51°53' E 004°22'0 0.0
2014-Dec-05 23:33N 51°53' E 004°22'0 0.0
2014-Dec-05 22:33N 51°53' E 004°22'0 0.0
2014-Dec-05 21:33N 51°53' E 004°22'0 0.0
2014-Dec-05 20:33N 51°53' E 004°22'0 0.0
2014-Dec-05 19:33N 51°53' E 004°22'0 0.0
2014-Dec-05 18:33N 51°53' E 004°22'0 0.0
2014-Dec-05 17:33N 51°53' E 004°22'0 0.0
2014-Dec-05 16:30N 51°53' E 004°22'0 0.0
2014-Dec-05 15:33N 51°53' E 004°22'0 0.0
2014-Dec-05 14:33N 51°53' E 004°22'0 0.0
2014-Dec-05 13:33N 51°53' E 004°22'0 0.0
2014-Dec-05 12:33N 51°53' E 004°22'0 0.0
2014-Dec-05 11:33N 51°53' E 004°22'0 0.0
2014-Dec-05 10:33N 51°53' E 004°22'0 0.0
2014-Dec-05 09:33N 51°53' E 004°22'0 0.0
2014-Dec-05 08:30N 51°53' E 004°22'0 0.0
2014-Dec-05 07:33N 51°53' E 004°22'0 0.0
2014-Dec-05 06:33N 51°53' E 004°22'0 0.0
2014-Dec-05 05:30N 51°53' E 004°22'0 0.0
2014-Dec-05 04:33N 51°53' E 004°22'0 0.0
2014-Dec-05 03:33N 51°53' E 004°22'0 0.0
2014-Dec-05 02:33N 51°53' E 004°22'0 0.0
2014-Dec-05 01:33N 51°53' E 004°22'0 0.0
2014-Dec-05 00:33N 51°53' E 004°22'0 0.0
2014-Dec-04 23:33N 51°53' E 004°22'0 0.0
2014-Dec-04 22:30N 51°53' E 004°22'0 0.0
2014-Dec-04 21:33N 51°53' E 004°22'0 0.0
2014-Dec-04 20:33N 51°53' E 004°22'0 0.0
2014-Dec-04 19:33N 51°53' E 004°22'0 0.0
2014-Dec-04 18:33N 51°53' E 004°22'0 0.0
2014-Dec-04 17:33N 51°53' E 004°22'0 0.0
2014-Dec-04 16:33N 51°53' E 004°22'0 0.0
2014-Dec-04 15:33N 51°53' E 004°22'0 0.0
2014-Dec-04 14:33N 51°53' E 004°22'0 0.0
2014-Dec-04 13:33N 51°53' E 004°22'0 0.0
2014-Dec-04 12:33N 51°53' E 004°22'0 0.0
2014-Dec-04 11:33N 51°53' E 004°22'0 0.0
2014-Dec-04 10:33N 51°53' E 004°22'0 0.0
2014-Dec-04 09:33N 51°53' E 004°22'0 0.0
2014-Dec-04 08:33N 51°53' E 004°22'0 0.0
2014-Dec-04 07:33N 51°53' E 004°22'0 0.0
2014-Dec-04 06:33N 51°53' E 004°22'0 0.0
2014-Dec-04 05:33N 51°53' E 004°22'0 0.0
2014-Dec-04 04:33N 51°53' E 004°22'0 0.0
2014-Dec-04 03:33N 51°53' E 004°22'0 0.0
2014-Dec-04 02:33N 51°53' E 004°22'0 0.0
2014-Dec-04 01:33N 51°53' E 004°22'0 0.0
2014-Dec-04 00:33N 51°53' E 004°22'0 0.0
2014-Dec-03 23:33N 51°53' E 004°22'0 0.0
2014-Dec-03 22:33N 51°53' E 004°22'0 0.0
2014-Dec-03 21:33N 51°53' E 004°22'0 0.0
2014-Dec-03 20:30N 51°53' E 004°22'0 0.0
2014-Dec-03 19:33N 51°53' E 004°22'0 0.0
2014-Dec-03 18:33N 51°53' E 004°22'0 0.0
2014-Dec-03 17:33N 51°53' E 004°22'0 0.0
2014-Dec-03 16:33N 51°53' E 004°22'0 0.0
2014-Dec-03 15:30N 51°53' E 004°22'0 0.0
2014-Dec-03 14:33N 51°53' E 004°22'0 0.0
2014-Dec-03 13:33N 51°53' E 004°22'0 0.0
2014-Dec-03 12:24N 51°53' E 004°22'0 0.0
2014-Dec-03 11:30N 51°53' E 004°22'0 0.0
2014-Dec-03 10:33N 51°53' E 004°22'0 0.0
2014-Dec-03 09:33N 51°53' E 004°22'0 0.0
2014-Dec-03 08:33N 51°53' E 004°22'0 0.0
2014-Dec-03 07:33N 51°53' E 004°22'0 0.0
2014-Dec-03 06:33N 51°53' E 004°22'0 0.0
2014-Dec-03 05:33N 51°53' E 004°22'0 0.0
2014-Dec-03 04:30N 51°53' E 004°22'0 0.0
2014-Dec-03 03:30N 51°53' E 004°22'0 0.0
2014-Dec-03 02:33N 51°53' E 004°22'2 2.1
2014-Dec-03 01:33N 51°54' E 004°19'9 9.0
2014-Dec-03 00:33N 51°59' E 004°07'1110.5
2014-Dec-02 23:33N 52°01' E 003°50'9 0.6
2014-Dec-02 08:12N 51°56' E 003°37'0 0.0
2014-Dec-02 05:06N 51°56' E 003°37'0 0.0
2014-Dec-02 04:27N 51°56' E 003°37'0 0.0
2014-Dec-02 02:27N 51°56' E 003°37'2 2.3
2014-Dec-02 01:29N 51°57' E 003°34'1010.6
2014-Dec-02 00:34N 51°52' E 003°21'1312.5
2014-Dec-01 23:33N 51°40' E 003°20'1414.4
2014-Dec-01 22:34N 51°27' E 003°31'1010.4
2014-Dec-01 21:34N 51°22' E 003°45'1010.0
2014-Dec-01 20:33N 51°26' E 003°60'9 8.5
2014-Dec-01 19:33N 51°23' E 004°13'4 3.9
2014-Dec-01 18:33N 51°21' E 004°17'0 0.0
2014-Dec-01 17:33N 51°21' E 004°17'0 0.4
2014-Dec-01 16:33N 51°21' E 004°18'1 0.0
2014-Nov-30 10:34N 51°21' E 004°18'1 0.7
2014-Nov-30 09:34N 51°21' E 004°17'4 3.7
2014-Nov-30 08:33N 51°23' E 004°13'9 9.4
2014-Nov-30 07:33N 51°25' E 003°58'10 9.8
2014-Nov-30 06:33N 51°24' E 003°43'7 7.3
2014-Nov-30 05:33N 51°25' E 003°31'1312.5
2014-Nov-30 04:33N 51°24' E 003°11'1312.4
2014-Nov-30 03:28N 51°21' E 002°50'9 9.5
2014-Nov-30 02:32N 51°23' E 002°36'1 1.2
2014-Nov-30 01:32N 51°24' E 002°36'0 0.0
2014-Nov-30 00:32N 51°24' E 002°36'0 0.0
2014-Nov-29 23:32N 51°24' E 002°36'0 0.0
2014-Nov-29 22:29N 51°24' E 002°36'0 0.1
2014-Nov-29 21:32N 51°25' E 002°36'0 0.1
2014-Nov-29 20:32N 51°25' E 002°36'0 0.0
2014-Nov-29 19:32N 51°25' E 002°36'0 0.0
2014-Nov-29 18:17N 51°25' E 002°36'0 0.0
2014-Nov-29 17:26N 51°25' E 002°36'0 0.0
2014-Nov-29 16:32N 51°25' E 002°36'0 0.1
2014-Nov-29 12:32N 51°24' E 002°36'0 0.0
2014-Nov-29 10:05N 51°24' E 002°36'0 0.0
2014-Nov-29 09:20N 51°24' E 002°36'0 0.1
2014-Nov-29 08:17N 51°25' E 002°36'0 0.1
2014-Nov-29 07:32N 51°25' E 002°36'0 0.0
2014-Nov-29 06:29N 51°25' E 002°36'0 0.0
2014-Nov-29 05:29N 51°25' E 002°36'0 0.1
2014-Nov-29 04:32N 51°25' E 002°36'0 0.1
2014-Nov-29 03:20N 51°24' E 002°36'0 0.1
2014-Nov-29 02:17N 51°24' E 002°36'0 0.0
2014-Nov-29 01:23N 51°24' E 002°36'0 0.0
2014-Nov-29 00:17N 51°24' E 002°36'0 0.0
2014-Nov-28 23:32N 51°24' E 002°36'0 0.0
2014-Nov-28 22:29N 51°24' E 002°36'0 0.0
2014-Nov-28 21:17N 51°24' E 002°36'0 0.0
2014-Nov-28 20:29N 51°24' E 002°36'0 0.2
2014-Nov-28 19:32N 51°25' E 002°36'0 0.1
2014-Nov-28 18:17N 51°25' E 002°36'0 0.0
2014-Nov-28 17:14N 51°25' E 002°36'0 0.0
2014-Nov-28 16:29N 51°25' E 002°36'0 0.2
2014-Nov-28 15:26N 51°25' E 002°36'0 0.1
2014-Nov-28 14:20N 51°24' E 002°36'0 0.1
2014-Nov-28 13:32N 51°24' E 002°36'0 0.0
2014-Nov-28 12:26N 51°24' E 002°36'0 0.0
2014-Nov-28 11:32N 51°24' E 002°36'  

Dump ship's entire track history